Latest Weather Observations for Lord Howe Island

IDN60801

Issued at 9:32 pm EST Friday 22 May 2015 (issued every 30 minutes, with the page automatically refreshed every 10 minutes)

About weather observations | Map of weather stations | Latest weather observations for NSW | Other Formats
Station Details ID: 200839 Name: LORD HOWE ISLAND AERO Lat: -31.54 Lon: 159.08 Height: 5.0 m
Data from the previous 72 hours. | See also: Recent months at Lord Howe Island
Date/Time
EST
Temp
°C
App
Temp
°C
Dew
Point
Rel
Hum
%
Delta-T
°C
Wind Press
QNH
hPa
Press
MSL
hPa
Rain
since 9 am
mm
Dir
 
Spd
km/h
Gust
km/h
Spd
kts
Gust
kts
22/09:30pm 19.4 14.0 14.0 71 3.1 WSW 35 43 19 23 1007.4 - 5.6
22/09:00pm 19.3 13.9 13.9 71 3.1 WSW 35 43 19 23 1007.4 - 5.6
22/08:30pm 19.4 14.0 13.8 70 3.2 WSW 35 43 19 23 1007.1 1007.1 5.6
22/08:00pm 19.0 13.3 14.1 73 2.8 WSW 37 44 20 24 1007.2 - 5.6
22/07:30pm 18.4 13.6 14.0 75 2.5 WSW 32 41 17 22 1006.8 - 5.6
22/07:26pm 18.0 13.3 14.4 79 2.1 WSW 32 39 17 21 1006.8 - 5.6
22/07:15pm 17.1 12.0 13.6 80 2.0 WSW 33 44 18 24 1007.0 - 5.6
22/07:14pm 17.1 12.1 13.9 81 1.8 WSW 33 44 18 24 1007.0 - 5.4
22/07:01pm 16.9 10.0 14.1 83 1.6 WSW 43 61 23 33 1007.1 - 4.8
22/07:00pm 16.8 9.9 14.5 86 1.3 WSW 44 61 24 33 1007.1 - 4.8
22/06:56pm 17.0 8.7 13.8 81 1.8 WSW 50 69 27 37 1007.0 - 4.8
22/06:48pm 18.4 8.5 13.1 71 3.0 WSW 57 67 31 36 1006.8 - 4.6
22/06:46pm 18.9 12.7 13.7 72 3.0 WSW 39 65 21 35 1006.9 - 4.6
22/06:30pm 19.6 14.2 13.9 69 3.3 WSW 35 44 19 24 1006.7 - 4.6
22/06:00pm 19.7 14.6 13.8 69 3.4 WSW 33 41 18 22 1006.6 - 4.6
22/05:30pm 19.5 16.0 15.4 77 2.4 SW 28 43 15 23 1006.5 1006.5 4.6
22/05:00pm 20.1 15.4 14.4 69 3.3 W 32 39 17 21 1006.4 - 4.6
22/04:30pm 20.0 16.0 15.1 73 2.9 W 30 39 16 21 1006.7 - 4.6
22/04:00pm 20.1 16.4 15.9 77 2.5 W 30 37 16 20 1006.4 - 4.6
22/03:30pm 20.2 16.5 15.9 76 2.6 WSW 30 35 16 19 1006.4 - 4.6
22/03:00pm 19.7 17.0 16.6 82 1.9 WSW 26 35 14 19 1006.6 - 4.6
22/02:52pm 19.5 16.7 17.4 88 1.3 WSW 28 35 15 19 1006.6 - 4.6
22/02:34pm 19.0 16.2 17.2 89 1.1 WSW 28 41 15 22 1006.9 - 4.2
22/02:30pm 19.4 16.8 16.8 85 1.6 SW 26 35 14 19 1006.6 1006.6 4.0
22/02:00pm 20.6 16.4 16.3 76 2.6 WSW 33 39 18 21 1006.7 - 3.8
22/01:30pm 21.6 16.7 16.3 72 3.2 W 37 43 20 23 1007.0 - 3.8
22/01:00pm 20.9 17.1 16.8 77 2.5 W 32 39 17 21 1007.3 - 3.8
22/12:30pm 21.4 18.2 17.2 77 2.6 W 30 37 16 20 1007.7 - 3.8
22/12:00pm 21.1 17.0 17.4 79 2.3 W 35 43 19 23 1008.2 - 3.8
22/11:58am 20.9 16.8 17.3 80 2.2 W 35 43 19 23 1008.2 - 3.8
22/11:43am 20.6 18.2 18.2 86 1.5 W 28 39 15 21 1008.4 - 3.8
22/11:30am 20.8 18.9 17.7 82 1.9 W 24 39 13 21 1008.7 1008.7 3.8
22/11:00am 20.1 17.7 18.3 89 1.1 W 28 37 15 20 1009.6 - 3.8
22/10:56am 20.0 16.7 17.9 88 1.3 W 32 41 17 22 1009.6 - 3.8
22/10:43am 19.6 18.5 17.8 89 1.1 WNW 20 28 11 15 1010.3 - 3.4
22/10:30am 20.1 20.9 17.3 84 1.7 WNW 9 20 5 11 1009.9 - 1.2
22/10:21am 20.3 20.9 17.7 85 1.6 NNW 11 20 6 11 1010.4 - 0.4
22/10:00am 21.4 21.4 17.3 77 2.5 N 13 20 7 11 1010.4 - 0.0
22/09:30am 21.5 22.0 17.4 77 2.5 NNE 11 17 6 9 1010.7 - 0.0
22/09:00am 20.9 20.7 16.6 76 2.6 NNE 13 19 7 10 1010.8 - 0.0
22/08:30am 20.6 20.4 16.8 79 2.3 NNE 13 22 7 12 1011.1 1011.1 32.0
22/08:00am 20.2 19.7 16.9 81 2.0 NNE 15 20 8 11 1011.4 - 32.0
22/07:30am 20.1 18.7 16.6 80 2.1 NNE 19 24 10 13 1011.5 - 32.0
22/07:00am 19.7 17.4 16.7 83 1.8 NE 24 32 13 17 1011.3 - 32.0
22/06:30am 19.7 18.0 17.2 85 1.5 NE 22 28 12 15 1011.6 - 31.6
22/06:00am 19.6 18.4 17.0 85 1.6 NE 19 26 10 14 1011.8 - 31.4
22/05:30am 19.6 18.8 17.0 85 1.6 NNE 17 20 9 11 1011.9 1011.9 31.4
22/05:00am 19.3 17.7 16.1 82 1.9 ENE 19 22 10 12 1011.6 - 31.2
22/04:30am 19.7 17.5 16.0 79 2.2 ENE 22 26 12 14 1011.6 - 30.8
22/04:00am 19.3 17.5 16.1 82 1.9 ENE 20 24 11 13 1011.5 - 30.8
22/03:30am 19.1 17.9 16.1 83 1.8 NE 17 20 9 11 1012.4 - 30.8
22/03:00am 19.0 17.3 16.3 84 1.6 ENE 20 24 11 13 1012.9 - 30.8
22/02:30am 18.7 17.5 16.2 85 1.5 NE 17 20 9 11 1013.7 1013.7 30.6
22/02:00am 18.9 17.7 16.0 83 1.7 ENE 17 20 9 11 1013.2 - 30.2
22/01:39am 18.7 18.1 16.7 88 1.2 NE 15 17 8 9 1014.1 - 30.2
22/01:30am 18.7 18.2 16.9 89 1.1 NE 15 19 8 10 1014.4 - 30.2
22/01:00am 18.8 18.1 17.3 91 0.9 NE 17 20 9 11 1014.7 - 30.2
22/12:39am 18.5 19.9 17.3 93 0.7 E 6 11 3 6 1015.1 - 30.2
22/12:30am 18.4 19.5 17.1 92 0.8 E 7 15 4 8 1015.2 - 30.2
22/12:05am 18.3 18.6 17.1 93 0.7 E 11 13 6 7 1015.4 - 29.8
22/12:00am 18.0 18.6 16.8 93 0.7 E 9 13 5 7 1015.6 - 29.6
 
Date/Time
EST
Temp
°C
App
Temp
°C
Dew
Point
Rel
Hum
%
Delta-T
°C
Wind Press
QNH
hPa
Press
MSL
hPa
Rain
since 9 am
mm
Dir
 
Spd
km/h
Gust
km/h
Spd
kts
Gust
kts
21/11:36pm 17.4 19.6 16.6 95 0.5 CALM 0 0 0 0 1016.2 - 28.2
21/11:30pm 17.6 19.8 16.6 94 0.6 CALM 0 0 0 0 1016.5 1016.5 28.0
21/11:05pm 17.9 19.4 16.6 92 0.8 ENE 4 9 2 5 1016.4 - 27.4
21/11:00pm 17.9 18.7 16.4 91 0.9 E 7 9 4 5 1016.4 - 27.2
21/10:45pm 18.3 19.6 17.0 92 0.8 SW 6 11 3 6 1016.7 - 26.6
21/10:30pm 18.5 18.7 16.7 89 1.1 E 11 17 6 9 1016.4 - 26.0
21/10:00pm 18.2 18.0 15.7 85 1.5 SE 11 17 6 9 1016.4 - 25.6
21/09:32pm 18.0 18.4 16.3 90 1.0 ENE 9 15 5 8 1016.8 - 25.4
21/09:30pm 18.1 18.7 16.8 92 0.8 NE 9 13 5 7 1016.9 - 25.2
21/09:03pm 18.4 20.4 16.9 91 0.9 S 2 7 1 4 1017.4 - 23.2
21/09:00pm 18.4 20.4 16.9 91 0.9 SSE 2 7 1 4 1017.4 - 22.8
21/08:30pm 18.8 19.1 17.0 89 1.1 ESE 11 15 6 8 1016.9 1016.9 22.2
21/08:03pm 18.3 19.4 17.1 93 0.7 SE 7 13 4 7 1017.1 - 22.2
21/08:00pm 18.3 19.4 17.1 93 0.7 ESE 7 13 4 7 1017.1 - 22.2
21/07:47pm 18.6 20.0 17.4 93 0.7 ESE 6 9 3 5 1017.4 - 22.2
21/07:30pm 18.4 20.2 17.4 94 0.6 NNW 4 7 2 4 1017.4 - 22.0
21/07:00pm 18.2 19.9 17.2 94 0.6 S 4 9 2 5 1017.2 - 22.0
21/06:49pm 18.2 19.5 17.0 93 0.7 E 6 9 3 5 1017.3 - 22.0
21/06:30pm 18.3 19.0 17.0 92 0.8 E 9 9 5 5 1017.2 - 21.6
21/06:27pm 18.3 19.4 17.0 92 0.8 E 7 9 4 5 1017.2 - 21.4
21/06:17pm 18.3 19.3 16.8 91 0.9 E 7 9 4 5 1017.2 - 21.0
21/06:00pm 18.3 19.2 16.5 89 1.1 SE 7 7 4 4 1017.2 - 20.6
21/05:30pm 18.3 19.4 16.5 89 1.1 SSW 6 9 3 5 1017.0 1017.0 19.6
21/05:22pm 18.2 19.1 16.5 90 1.0 SSW 7 9 4 5 1016.9 - 19.6
21/05:02pm 18.5 19.2 16.1 86 1.4 SSW 7 15 4 8 1016.6 - 18.8
21/05:00pm 18.4 18.8 16.2 87 1.3 SSW 9 15 5 8 1016.6 - 18.6
21/04:30pm 18.5 19.0 16.5 88 1.2 SSW 9 13 5 7 1016.4 - 17.0
21/04:02pm 18.6 18.3 16.4 87 1.3 SW 13 19 7 10 1016.4 - 16.0
21/04:00pm 18.5 18.2 16.5 88 1.2 SSW 13 20 7 11 1016.4 - 16.0
21/03:34pm 18.5 18.2 17.3 93 0.7 SW 15 22 8 12 1016.6 - 14.0
21/03:30pm 18.4 18.1 17.4 94 0.6 SW 15 22 8 12 1016.6 - 13.6
21/03:00pm 18.8 16.7 17.1 90 1.0 SW 24 43 13 23 1016.5 - 6.8
21/02:59pm 18.8 16.7 17.1 90 1.0 SW 24 43 13 23 1016.4 - 6.6
21/02:46pm 19.2 18.5 17.4 89 1.1 SW 17 22 9 12 1016.1 - 6.4
21/02:41pm 19.4 16.9 18.1 92 0.8 WSW 28 33 15 18 1016.1 - 6.4
21/02:33pm 20.1 22.5 18.8 92 0.8 WSW 4 11 2 6 1016.0 - 6.2
21/02:30pm 20.0 22.7 18.7 92 0.8 N 2 11 1 6 1016.0 1016.0 6.2
21/02:18pm 20.0 21.6 17.9 88 1.3 SSW 6 11 3 6 1016.1 - 3.0
21/02:08pm 19.8 20.6 17.2 85 1.6 S 9 13 5 7 1016.3 - 2.6
21/02:00pm 19.2 19.8 16.7 85 1.5 S 9 15 5 8 1016.5 - 2.6
21/01:46pm 20.3 18.5 17.9 86 1.5 W 24 35 13 19 1016.6 - 1.6
21/01:30pm 22.2 23.5 19.4 84 1.8 NW 11 17 6 9 1016.3 - 0.8
21/01:00pm 23.2 24.2 19.4 79 2.4 WNW 13 20 7 11 1016.6 - 0.8
21/12:30pm 23.9 24.9 19.5 76 2.8 WNW 13 20 7 11 1017.0 - 0.8
21/12:00pm 23.4 24.3 19.2 77 2.7 WNW 13 19 7 10 1017.6 - 0.8
21/11:30am 23.0 23.3 18.7 77 2.7 W 15 22 8 12 1017.8 1017.8 0.8
21/11:00am 22.1 22.7 17.7 76 2.7 NW 11 17 6 9 1018.3 - 0.8
21/10:30am 23.2 24.5 19.4 79 2.4 NW 11 20 6 11 1018.7 - 0.8
21/10:00am 23.1 24.3 20.0 83 2.0 WNW 13 20 7 11 1018.9 - 0.6
21/09:30am 21.7 21.7 19.0 84 1.7 W 17 20 9 11 1019.2 - 0.6
21/09:00am 22.0 24.3 19.8 87 1.4 NW 7 11 4 6 1019.3 - 0.4
21/08:49am 21.8 24.2 19.6 87 1.4 WNW 6 9 3 5 1019.3 - 0.4
21/08:45am 21.8 23.6 19.6 87 1.4 W 9 15 5 8 1019.3 - 0.4
21/08:35am 21.7 22.0 18.7 83 1.9 WNW 15 28 8 15 1019.1 - 0.4
21/08:30am 21.4 21.5 18.3 82 1.9 WNW 15 24 8 13 1019.3 1019.3 0.8
21/08:15am 22.1 23.9 19.6 86 1.6 W 9 17 5 9 1019.2 - 0.8
21/08:00am 22.1 23.4 19.4 85 1.7 W 11 19 6 10 1019.1 - 0.8
21/07:30am 22.4 23.3 19.2 82 2.0 WNW 13 20 7 11 1018.9 - 0.8
21/07:25am 22.1 23.3 19.1 83 1.9 WNW 11 20 6 11 1018.8 - 0.8
21/07:08am 21.7 23.1 19.5 87 1.4 W 11 15 6 8 1018.8 - 0.8
21/07:00am 21.6 23.0 19.6 88 1.3 W 11 15 6 8 1018.8 - 0.8
21/06:30am 21.4 22.0 18.5 83 1.8 WNW 13 19 7 10 1018.8 - 0.8
21/06:00am 21.6 21.7 19.1 86 1.6 W 17 22 9 12 1018.6 - 0.8
21/05:30am 21.6 21.7 19.1 86 1.6 W 17 22 9 12 1018.7 1018.7 0.8
21/05:00am 21.6 21.7 19.1 86 1.6 W 17 24 9 13 1018.5 - 0.8
21/04:36am 21.4 21.8 18.9 86 1.6 W 15 20 8 11 1018.4 - 0.8
21/04:30am 21.4 21.6 18.5 83 1.8 W 15 20 8 11 1018.3 - 0.8
21/04:21am 21.5 22.3 19.1 86 1.5 W 13 20 7 11 1018.2 - 0.8
21/04:00am 21.5 22.3 19.0 86 1.6 WNW 13 20 7 11 1018.3 - 0.8
21/03:30am 21.5 21.7 18.5 83 1.9 WNW 15 20 8 11 1018.4 - 0.8
21/03:00am 21.4 22.7 18.5 83 1.8 NW 9 19 5 10 1018.0 - 0.8
21/02:30am 21.2 23.0 18.8 86 1.5 WNW 7 13 4 7 1018.2 1018.2 0.8
21/02:00am 21.2 22.9 18.6 85 1.6 WNW 7 15 4 8 1018.2 - 0.8
21/01:30am 21.5 22.0 18.3 82 2.0 WNW 13 22 7 12 1018.6 - 0.8
21/01:00am 21.3 21.9 18.7 85 1.6 WNW 13 19 7 10 1018.8 - 0.8
21/12:30am 21.3 21.9 18.7 85 1.6 WNW 13 22 7 12 1018.9 - 0.8
21/12:00am 21.3 22.4 18.9 86 1.5 WNW 11 17 6 9 1019.0 - 0.8
 
Date/Time
EST
Temp
°C
App
Temp
°C
Dew
Point
Rel
Hum
%
Delta-T
°C
Wind Press
QNH
hPa
Press
MSL
hPa
Rain
since 9 am
mm
Dir
 
Spd
km/h
Gust
km/h
Spd
kts
Gust
kts
20/11:30pm 21.2 21.6 18.1 82 1.9 W 13 19 7 10 1019.2 1019.2 0.8
20/11:00pm 21.2 22.3 18.8 86 1.5 WNW 11 19 6 10 1019.4 - 0.8
20/10:30pm 21.1 22.4 18.4 84 1.7 WNW 9 19 5 10 1019.4 - 0.8
20/10:00pm 21.4 22.3 18.3 82 1.9 WNW 11 19 6 10 1019.5 - 0.8
20/09:30pm 21.2 21.8 18.6 85 1.6 W 13 17 7 9 1019.6 - 0.8
20/09:00pm 21.4 21.7 18.7 84 1.7 W 15 22 8 12 1019.7 - 0.8
20/08:30pm 21.3 22.7 18.7 85 1.6 WNW 9 17 5 9 1019.8 1019.8 0.8
20/08:00pm 21.2 22.9 18.5 84 1.7 WNW 7 11 4 6 1019.8 - 0.8
20/07:30pm 21.2 22.5 18.5 84 1.7 WNW 9 19 5 10 1019.5 - 0.8
20/07:00pm 21.3 22.6 18.4 83 1.8 WNW 9 15 5 8 1019.3 - 0.8
20/06:30pm 21.5 22.1 18.5 83 1.9 WNW 13 22 7 12 1019.1 - 0.8
20/06:00pm 21.3 22.3 18.6 84 1.7 WNW 11 20 6 11 1018.9 - 0.8
20/05:30pm 21.2 22.2 18.6 85 1.6 WNW 11 19 6 10 1018.7 1018.7 0.8
20/05:00pm 21.2 22.3 18.8 86 1.5 NW 11 19 6 10 1018.3 - 0.4
20/04:30pm 21.5 23.2 18.6 83 1.8 NW 7 15 4 8 1018.5 - 0.4
20/04:00pm 21.5 22.4 18.3 82 2.0 NW 11 20 6 11 1018.3 - 0.4
20/03:37pm 21.7 22.3 17.8 78 2.4 NNW 11 19 6 10 1018.2 - 0.4
20/03:30pm 21.6 22.8 18.2 81 2.1 NNW 9 15 5 8 1018.2 - 0.4
20/03:00pm 21.2 22.1 18.5 84 1.7 N 11 17 6 9 1017.9 - 0.4
20/02:30pm 21.5 22.6 18.1 81 2.1 N 9 20 5 11 1018.1 1018.1 0.4
20/02:00pm 21.6 22.4 18.1 80 2.2 N 11 24 6 13 1018.4 - 0.4
20/01:52pm 21.6 22.3 17.9 79 2.3 NNW 11 24 6 13 1018.5 - 0.4
20/01:30pm 21.3 21.3 18.1 82 2.0 N 15 26 8 14 1018.6 - 0.4
20/01:00pm 21.3 21.9 17.7 80 2.2 N 11 20 6 11 1018.9 - 0.4
20/12:30pm 21.1 20.1 17.5 80 2.2 NW 19 28 10 15 1019.2 - 0.4
20/12:08pm 22.3 22.6 18.0 76 2.7 NNW 13 20 7 11 1019.2 - 0.4
20/12:00pm 22.1 22.3 16.8 72 3.2 NNW 11 20 6 11 1019.3 - 0.4
20/11:30am 21.7 22.4 18.0 79 2.3 NNW 11 22 6 12 1019.7 1019.7 0.4
20/11:10am 20.6 20.1 17.0 80 2.2 NNW 15 30 8 16 1020.2 - 0.4
20/11:00am 20.5 22.3 18.7 89 1.1 WNW 7 17 4 9 1020.3 - 0.4
20/10:51am 20.1 21.4 18.5 90 1.0 NE 9 15 5 8 1020.5 - 0.4
20/10:31am 19.0 19.6 17.7 92 0.8 NE 11 17 6 9 1020.9 - 0.4
20/10:30am 19.1 19.7 17.6 91 0.9 NE 11 17 6 9 1021.0 - 0.4
20/10:10am 19.3 18.0 17.3 88 1.2 N 20 30 11 16 1021.2 - 0.2
20/10:00am 20.3 19.6 17.3 83 1.8 NNE 17 30 9 16 1021.0 - 0.2
20/09:30am 20.2 20.4 17.6 85 1.6 N 13 20 7 11 1021.2 - 0.2
20/09:00am 20.0 19.5 17.7 86 1.4 NNE 17 19 9 10 1021.3 - 0.2
20/08:30am 20.0 18.9 16.3 79 2.2 N 17 32 9 17 1021.3 1021.3 4.4
20/08:00am 19.7 18.5 16.2 80 2.1 NE 17 32 9 17 1021.0 - 4.4
20/07:30am 19.7 16.3 17.6 88 1.3 NNE 32 43 17 23 1020.6 - 4.4
20/07:00am 19.6 17.6 15.5 77 2.4 NE 20 33 11 18 1021.0 - 4.4
20/06:30am 19.6 17.9 16.3 81 2.0 N 20 41 11 22 1020.8 - 3.8
20/06:00am 19.8 19.0 16.1 79 2.2 N 15 26 8 14 1020.4 - 3.8
20/05:30am 19.5 17.6 15.8 79 2.2 NNE 20 32 11 17 1020.1 1020.1 3.6
20/05:00am 19.3 18.2 16.3 83 1.8 N 17 30 9 16 1020.4 - 3.6
20/04:30am 19.3 17.8 16.8 85 1.5 NNE 20 41 11 22 1020.2 - 3.4
20/04:00am 19.6 19.9 17.0 85 1.6 NNE 11 22 6 12 1020.2 - 2.8
20/03:30am 19.4 19.6 16.7 84 1.6 N 11 20 6 11 1020.5 - 2.2
20/03:00am 19.4 19.7 15.9 80 2.1 NNE 9 15 5 8 1020.5 - 1.6
20/02:30am 20.0 18.7 15.8 77 2.5 N 17 28 9 15 1020.5 1020.5 1.2
20/02:00am 19.9 19.1 16.0 78 2.3 NNE 15 30 8 16 1020.3 - 1.0
20/01:30am 19.9 18.0 15.7 77 2.5 NE 20 28 11 15 1020.7 - 0.6
20/01:00am 19.4 18.6 16.2 82 1.9 N 15 20 8 11 1021.2 - 0.6
20/12:30am 20.6 18.8 15.9 74 2.8 NNE 20 32 11 17 1021.3 - 0.6
20/12:00am 20.7 19.9 15.1 70 3.3 N 13 20 7 11 1022.0 - 0.6
 
Date/Time
EST
Temp
°C
App
Temp
°C
Dew
Point
Rel
Hum
%
Delta-T
°C
Wind Press
QNH
hPa
Press
MSL
hPa
Rain
since 9 am
mm
Dir
 
Spd
km/h
Gust
km/h
Spd
kts
Gust
kts
19/11:30pm 20.5 20.1 15.2 71 3.1 NNE 11 19 6 10 1022.5 1022.5 0.6
19/11:00pm 20.6 18.0 15.0 70 3.3 NNE 22 35 12 19 1022.3 - 0.6
19/10:30pm 20.3 19.5 16.1 77 2.5 N 15 28 8 15 1022.4 - 0.6
19/10:00pm 20.3 19.3 15.7 75 2.7 NNE 15 32 8 17 1022.4 - 0.6
19/09:30pm 20.0 18.5 15.2 74 2.8 NNE 17 28 9 15 1022.4 - 0.6

Other Formats:

Comma delimited format used in spreadsheet applications
http://www.bom.gov.au/fwo/IDN60801/IDN60801.94995.axf

JavaScript Object Notation format (JSON) in row-major order
http://www.bom.gov.au/fwo/IDN60801/IDN60801.94995.json